createdAt,value
2022-11-30T00:00:12.031Z,94.68
2022-11-30T00:10:40.972Z,94.66
2022-11-30T00:20:48.202Z,94.56
2022-11-30T00:30:58.951Z,94.56
2022-11-30T00:41:06.590Z,94.50
2022-11-30T00:51:14.609Z,94.55
2022-11-30T01:01:21.832Z,94.54
2022-11-30T01:11:31.602Z,94.51
2022-11-30T01:21:37.118Z,94.69
2022-11-30T01:31:44.498Z,94.83
2022-11-30T01:41:51.488Z,94.84
2022-11-30T01:52:04.120Z,94.93
2022-11-30T02:02:11.658Z,94.78
2022-11-30T02:12:17.336Z,94.96
2022-11-30T02:22:25.468Z,94.95
2022-11-30T02:32:37.809Z,94.89
2022-11-30T02:42:44.250Z,94.89
2022-11-30T02:52:50.357Z,94.93
2022-11-30T03:02:57.734Z,94.80
2022-11-30T03:13:05.208Z,95.05
2022-11-30T03:23:12.870Z,95.01
2022-11-30T03:33:20.237Z,95.15
2022-11-30T03:43:27.366Z,95.11
2022-11-30T03:53:35.575Z,94.92
2022-11-30T04:03:43.834Z,94.94
2022-11-30T04:13:51.028Z,94.90
2022-11-30T04:23:58.218Z,94.99
2022-11-30T04:34:05.466Z,94.93
2022-11-30T04:44:12.542Z,95.10
2022-11-30T04:54:19.837Z,94.80
2022-11-30T05:04:27.136Z,94.90
2022-11-30T05:14:34.431Z,94.86
2022-11-30T05:24:41.893Z,95.12
2022-11-30T05:34:51.609Z,94.92
2022-11-30T05:44:59.186Z,94.98
2022-11-30T05:55:05.053Z,94.91
2022-11-30T06:15:19.086Z,95.21
2022-11-30T06:25:26.807Z,95.01
2022-11-30T06:35:34.031Z,94.80
2022-11-30T06:55:48.022Z,94.96
2022-11-30T07:05:55.436Z,95.14
2022-11-30T07:16:03.976Z,95.02
2022-11-30T07:26:09.740Z,94.71
2022-11-30T07:36:17.875Z,94.68
2022-11-30T07:46:25.001Z,94.87
2022-11-30T07:56:32.220Z,94.93
2022-11-30T08:06:39.676Z,94.86
2022-11-30T08:16:48.178Z,95.02
2022-11-30T08:26:55.824Z,94.75
2022-11-30T08:37:03.054Z,94.94
2022-11-30T08:47:10.301Z,94.87
2022-11-30T08:57:17.715Z,94.64
2022-11-30T09:07:25.574Z,94.98
2022-11-30T09:17:33.690Z,94.85
2022-11-30T09:27:41.284Z,94.81
2022-11-30T09:37:48.463Z,94.75
2022-11-30T09:58:23.154Z,94.75
2022-11-30T10:18:46.424Z,94.72
2022-11-30T10:28:53.411Z,94.76
2022-11-30T10:39:04.086Z,94.82
2022-11-30T10:49:18.525Z,94.51
2022-11-30T10:59:26.411Z,94.72
2022-11-30T11:09:36.273Z,94.85
2022-11-30T11:19:45.390Z,94.68
2022-11-30T11:29:59.351Z,94.37
2022-11-30T11:40:05.556Z,94.74
2022-11-30T11:51:05.117Z,94.62
2022-11-30T12:01:31.091Z,94.60
2022-11-30T12:11:33.173Z,94.63
2022-11-30T12:21:40.534Z,94.43
2022-11-30T12:31:54.297Z,94.65
2022-11-30T12:41:59.463Z,94.63
2022-11-30T12:52:10.182Z,94.03
2022-11-30T13:02:37.022Z,94.14
2022-11-30T13:12:42.896Z,94.28
2022-11-30T13:22:57.563Z,94.39
2022-11-30T13:33:35.254Z,94.26
2022-11-30T13:43:41.469Z,94.20
2022-11-30T13:53:48.704Z,94.13
2022-11-30T14:04:34.585Z,94.25
2022-11-30T14:14:47.006Z,93.99
2022-11-30T14:24:56.767Z,93.96
2022-11-30T14:35:02.610Z,94.23
2022-11-30T14:45:15.707Z,94.17
2022-11-30T14:55:22.275Z,93.97
2022-11-30T15:05:33.166Z,93.97
2022-11-30T15:15:41.844Z,94.00
2022-11-30T15:25:48.942Z,93.92
2022-11-30T15:36:18.849Z,93.95
2022-11-30T15:46:29.733Z,93.95
2022-11-30T15:56:37.348Z,93.89
2022-11-30T16:06:47.972Z,93.90
2022-11-30T16:16:55.502Z,93.79
2022-11-30T16:27:03.828Z,94.06
2022-11-30T16:37:09.431Z,93.62
2022-11-30T16:47:16.681Z,93.56
2022-11-30T16:57:23.865Z,93.46
2022-11-30T17:07:31.798Z,93.60
2022-11-30T17:17:38.765Z,93.46
2022-11-30T17:27:47.106Z,93.40
2022-11-30T17:37:54.619Z,93.32
2022-11-30T17:48:01.788Z,93.54
2022-11-30T17:58:09.134Z,93.40
2022-11-30T18:08:14.036Z,93.48
2022-11-30T18:18:21.251Z,93.28
2022-11-30T18:28:28.888Z,93.42
2022-11-30T18:38:38.387Z,93.55
2022-11-30T18:48:44.111Z,93.44
2022-11-30T18:58:55.616Z,93.41
2022-11-30T19:19:08.750Z,93.32
2022-11-30T19:29:17.076Z,93.23
2022-11-30T19:39:26.056Z,93.09
2022-11-30T19:49:31.026Z,93.08
2022-11-30T19:59:40.059Z,92.99
2022-11-30T20:20:06.480Z,93.03
2022-11-30T20:30:13.232Z,93.09
2022-11-30T20:40:20.758Z,92.94
2022-11-30T20:50:27.166Z,92.96
2022-11-30T21:00:33.638Z,92.91
2022-11-30T21:10:39.320Z,93.17
2022-11-30T21:20:46.333Z,93.22
2022-11-30T21:30:53.558Z,93.04
2022-11-30T21:41:02.243Z,92.86
2022-11-30T21:51:06.976Z,92.85
2022-11-30T22:01:15.155Z,93.13
2022-11-30T22:11:23.045Z,93.28
2022-11-30T22:21:32.394Z,92.97
2022-11-30T22:31:39.555Z,92.88
2022-11-30T22:41:54.557Z,93.04
2022-11-30T22:52:02.742Z,93.09
2022-11-30T23:02:10.166Z,92.86
2022-11-30T23:12:36.115Z,92.79
2022-11-30T23:22:44.736Z,93.06
2022-11-30T23:32:54.777Z,93.10
2022-11-30T23:43:02.000Z,92.76
2022-11-30T23:53:08.079Z,92.83
